McCall, ID

1:59 PM MDT on September 16, 2014 (GMT -0600)
Lowell | Change Station
CLOSE
Current Station
Airport
Location: Lowell,
Elevation: 1480 ft
Nearby Weather Stations

Elev 1480 ft 46.14 °N, 115.60 °W | Updated 7 minutes ago

Clear
Clear
79 °F
Feels Like 79 °F
N
0
Wind Variable Wind from North
Gusts 8 mph

Today
High -- | Low -- °F
--% Chance of Precip.
Yesterday
High -- | Low -- °F
Precip. -- in
7:24 AM 7:53 PM
Last Quarter, 43% visible
Pressure 29.83 in
Visibility -9999.0 miles
Clouds
Dew Point 46 °F
Humidity 31%
Rainfall 0.00 in
Snow Depth 0 in , 0 in , 0 in
UV Not available.
Pollen 7.70 out of 12
Air Quality Not available.
Flu Activity Not available.
METAR KP69 161952Z AUTO 00000KT 26/08 A2987 RMK AO1 SLP100 T02610078

More Conditions Fewer Conditions

Pressure 29.83 in
Visibility -9999.0 miles
Clouds
Dew Point 46 °F
Humidity 31%
Rainfall 0.00 in
Snow Depth 0 in , 0 in , 0 in
UV Not available.
Pollen 7.70 out of 12
Air Quality Not available.
Flu Activity Not available.
METAR KP69 161952Z AUTO 00000KT 26/08 A2987 RMK AO1 SLP100 T02610078

More Conditions Fewer Conditions

10-Day Weather Forecast

Almanac

Astronomy

Sep. 16, 2014 Rise Set
Actual Time 7:24 AM MDT 7:53 PM MDT
Civil Twilight 6:54 AM MDT 8:22 PM MDT
Nautical Twilight 6:20 AM MDT 8:57 PM MDT
Astronomical Twilight 5:44 AM MDT 9:32 PM MDT
Moon 12:26 AM MDT 3:31 PM MDT
Length of Visible Light 13h 27m
Length of Day
12h 28m
Tomorrow will be 3m 5s shorter.
Last Quarter, 43% of the Moon is Illuminated
Today
Last Quarter
Sep 24
New
Oct 1
First Quarter
Oct 8
Full
Oct 15
Last Quarter

Today's Extremes

State Highs State Lows

Community

WunderPhotos

Upload Photos

1,753,860 photos uploaded!

Nearby

Snow Depth

Station Depth Elevation
Mica Creek 0 in 4750 ft
Sheep Mountain 0 in 6570 ft
Stickney Mill 0 in 7430 ft
Deadwood Summit 1 in 6860 ft
Franklin Basin 0 in 8170 ft

Earthquake Activity

City Distance Mag. Time & Date
Challis, Idaho 88 miles 3.0 12:58 PM MDT
2014-09-14
Minimum magnitude displayed is 2.5.

Coastal Water Temperatures

Place Temperature
No Stations Reporting

Nearby Weather Stations